sensor_id;sensor_type;location;lat;lon;timestamp;P1;durP1;ratioP1;P2;durP2;ratioP2
21418;SDS011;10870;51.384;10.316;2022-12-18T00:01:14;52.10;;;24.95;;
21418;SDS011;10870;51.384;10.316;2022-12-18T00:03:16;50.92;;;27.27;;
21418;SDS011;10870;51.384;10.316;2022-12-18T00:05:17;57.97;;;27.95;;
21418;SDS011;10870;51.384;10.316;2022-12-18T00:07:21;54.10;;;28.85;;
21418;SDS011;10870;51.384;10.316;2022-12-18T00:09:22;59.42;;;30.88;;
21418;SDS011;10870;51.384;10.316;2022-12-18T00:11:24;53.60;;;30.02;;
21418;SDS011;10870;51.384;10.316;2022-12-18T00:13:29;57.78;;;29.25;;
21418;SDS011;10870;51.384;10.316;2022-12-18T00:15:35;50.65;;;27.02;;
21418;SDS011;10870;51.384;10.316;2022-12-18T00:17:36;52.10;;;26.45;;
21418;SDS011;10870;51.384;10.316;2022-12-18T00:19:37;50.58;;;27.90;;
21418;SDS011;10870;51.384;10.316;2022-12-18T00:21:41;50.70;;;27.08;;
21418;SDS011;10870;51.384;10.316;2022-12-18T00:23:48;47.00;;;26.42;;
21418;SDS011;10870;51.384;10.316;2022-12-18T00:25:52;47.88;;;26.98;;
21418;SDS011;10870;51.384;10.316;2022-12-18T00:27:53;46.65;;;27.63;;
21418;SDS011;10870;51.384;10.316;2022-12-18T00:29:54;51.40;;;27.60;;
21418;SDS011;10870;51.384;10.316;2022-12-18T00:31:58;47.72;;;25.33;;
21418;SDS011;10870;51.384;10.316;2022-12-18T00:33:59;48.05;;;25.00;;
21418;SDS011;10870;51.384;10.316;2022-12-18T00:36:07;48.83;;;26.95;;
21418;SDS011;10870;51.384;10.316;2022-12-18T00:38:27;43.35;;;23.25;;
21418;SDS011;10870;51.384;10.316;2022-12-18T00:40:31;41.35;;;21.98;;
21418;SDS011;10870;51.384;10.316;2022-12-18T00:42:32;45.03;;;23.33;;
21418;SDS011;10870;51.384;10.316;2022-12-18T00:44:54;37.45;;;21.20;;
21418;SDS011;10870;51.384;10.316;2022-12-18T00:46:57;41.63;;;22.10;;
21418;SDS011;10870;51.384;10.316;2022-12-18T00:48:59;49.17;;;24.92;;
21418;SDS011;10870;51.384;10.316;2022-12-18T00:51:00;41.50;;;22.58;;
21418;SDS011;10870;51.384;10.316;2022-12-18T00:53:03;37.83;;;21.00;;
21418;SDS011;10870;51.384;10.316;2022-12-18T00:55:04;39.50;;;21.98;;
21418;SDS011;10870;51.384;10.316;2022-12-18T00:57:06;42.15;;;23.05;;
21418;SDS011;10870;51.384;10.316;2022-12-18T00:59:07;39.88;;;20.73;;
21418;SDS011;10870;51.384;10.316;2022-12-18T01:01:08;37.35;;;19.02;;
21418;SDS011;10870;51.384;10.316;2022-12-18T01:03:09;39.67;;;20.55;;
21418;SDS011;10870;51.384;10.316;2022-12-18T01:05:14;30.88;;;18.88;;
21418;SDS011;10870;51.384;10.316;2022-12-18T01:07:16;36.95;;;18.92;;
21418;SDS011;10870;51.384;10.316;2022-12-18T01:09:17;35.05;;;19.63;;
21418;SDS011;10870;51.384;10.316;2022-12-18T01:11:18;38.67;;;20.23;;
21418;SDS011;10870;51.384;10.316;2022-12-18T01:13:21;38.63;;;21.40;;
21418;SDS011;10870;51.384;10.316;2022-12-18T01:15:22;39.55;;;20.83;;
21418;SDS011;10870;51.384;10.316;2022-12-18T01:17:23;39.10;;;19.00;;
21418;SDS011;10870;51.384;10.316;2022-12-18T01:19:24;32.50;;;18.90;;
21418;SDS011;10870;51.384;10.316;2022-12-18T01:21:26;27.90;;;17.45;;
21418;SDS011;10870;51.384;10.316;2022-12-18T01:23:27;33.25;;;16.98;;
21418;SDS011;10870;51.384;10.316;2022-12-18T01:25:28;33.45;;;16.80;;
21418;SDS011;10870;51.384;10.316;2022-12-18T01:27:29;30.10;;;16.80;;
21418;SDS011;10870;51.384;10.316;2022-12-18T01:29:34;26.15;;;15.82;;
21418;SDS011;10870;51.384;10.316;2022-12-18T01:31:35;27.42;;;15.77;;
21418;SDS011;10870;51.384;10.316;2022-12-18T01:33:38;32.75;;;16.13;;
21418;SDS011;10870;51.384;10.316;2022-12-18T01:35:40;30.55;;;16.13;;
21418;SDS011;10870;51.384;10.316;2022-12-18T01:37:46;30.88;;;15.05;;
21418;SDS011;10870;51.384;10.316;2022-12-18T01:39:49;30.35;;;16.95;;
21418;SDS011;10870;51.384;10.316;2022-12-18T01:41:52;27.83;;;15.18;;
21418;SDS011;10870;51.384;10.316;2022-12-18T01:44:46;27.58;;;16.20;;
21418;SDS011;10870;51.384;10.316;2022-12-18T01:46:45;25.20;;;15.02;;
21418;SDS011;10870;51.384;10.316;2022-12-18T01:48:51;27.23;;;15.93;;
21418;SDS011;10870;51.384;10.316;2022-12-18T01:51:00;32.85;;;18.48;;
21418;SDS011;10870;51.384;10.316;2022-12-18T01:55:20;27.77;;;14.93;;
21418;SDS011;10870;51.384;10.316;2022-12-18T01:57:25;35.60;;;15.52;;
21418;SDS011;10870;51.384;10.316;2022-12-18T01:59:32;29.55;;;17.17;;
21418;SDS011;10870;51.384;10.316;2022-12-18T02:01:37;30.52;;;18.00;;
21418;SDS011;10870;51.384;10.316;2022-12-18T02:03:41;36.22;;;20.30;;
21418;SDS011;10870;51.384;10.316;2022-12-18T02:10:30;34.75;;;18.67;;
21418;SDS011;10870;51.384;10.316;2022-12-18T02:12:43;31.60;;;18.20;;
21418;SDS011;10870;51.384;10.316;2022-12-18T02:17:16;32.97;;;16.77;;
21418;SDS011;10870;51.384;10.316;2022-12-18T02:28:19;28.33;;;15.65;;
21418;SDS011;10870;51.384;10.316;2022-12-18T02:30:23;32.45;;;16.98;;
21418;SDS011;10870;51.384;10.316;2022-12-18T02:32:43;31.40;;;16.42;;
21418;SDS011;10870;51.384;10.316;2022-12-18T02:34:49;33.58;;;16.63;;
21418;SDS011;10870;51.384;10.316;2022-12-18T02:36:57;35.03;;;19.65;;
21418;SDS011;10870;51.384;10.316;2022-12-18T02:39:06;24.67;;;14.23;;
21418;SDS011;10870;51.384;10.316;2022-12-18T02:41:12;38.05;;;18.65;;
21418;SDS011;10870;51.384;10.316;2022-12-18T02:43:16;35.00;;;19.30;;
21418;SDS011;10870;51.384;10.316;2022-12-18T02:45:19;33.08;;;18.63;;
21418;SDS011;10870;51.384;10.316;2022-12-18T02:47:24;33.75;;;18.73;;
21418;SDS011;10870;51.384;10.316;2022-12-18T02:49:53;31.30;;;18.88;;
21418;SDS011;10870;51.384;10.316;2022-12-18T02:55:04;29.55;;;17.25;;
21418;SDS011;10870;51.384;10.316;2022-12-18T02:56:53;33.95;;;16.48;;
21418;SDS011;10870;51.384;10.316;2022-12-18T03:03:24;40.13;;;19.17;;
21418;SDS011;10870;51.384;10.316;2022-12-18T03:05:37;39.78;;;18.13;;
21418;SDS011;10870;51.384;10.316;2022-12-18T03:07:47;43.30;;;19.75;;
21418;SDS011;10870;51.384;10.316;2022-12-18T03:09:52;44.85;;;20.33;;
21418;SDS011;10870;51.384;10.316;2022-12-18T03:11:56;37.88;;;19.02;;
21418;SDS011;10870;51.384;10.316;2022-12-18T03:14:17;42.63;;;19.05;;
21418;SDS011;10870;51.384;10.316;2022-12-18T03:16:22;39.17;;;20.75;;
21418;SDS011;10870;51.384;10.316;2022-12-18T03:20:31;34.28;;;18.85;;
21418;SDS011;10870;51.384;10.316;2022-12-18T03:22:35;36.70;;;18.13;;
21418;SDS011;10870;51.384;10.316;2022-12-18T03:24:40;33.50;;;18.20;;
21418;SDS011;10870;51.384;10.316;2022-12-18T03:26:43;39.90;;;18.00;;
21418;SDS011;10870;51.384;10.316;2022-12-18T03:28:58;38.25;;;18.08;;
21418;SDS011;10870;51.384;10.316;2022-12-18T03:31:00;29.42;;;16.90;;
21418;SDS011;10870;51.384;10.316;2022-12-18T03:33:19;32.47;;;16.92;;
21418;SDS011;10870;51.384;10.316;2022-12-18T03:35:26;31.20;;;17.25;;
21418;SDS011;10870;51.384;10.316;2022-12-18T03:37:30;31.70;;;16.58;;
21418;SDS011;10870;51.384;10.316;2022-12-18T03:39:34;34.13;;;18.40;;
21418;SDS011;10870;51.384;10.316;2022-12-18T03:41:47;36.65;;;19.05;;
21418;SDS011;10870;51.384;10.316;2022-12-18T03:44:04;35.30;;;18.85;;
21418;SDS011;10870;51.384;10.316;2022-12-18T03:46:13;33.53;;;17.00;;
21418;SDS011;10870;51.384;10.316;2022-12-18T03:48:23;35.38;;;17.92;;
21418;SDS011;10870;51.384;10.316;2022-12-18T03:52:42;30.60;;;16.58;;
21418;SDS011;10870;51.384;10.316;2022-12-18T03:54:46;34.88;;;16.95;;
21418;SDS011;10870;51.384;10.316;2022-12-18T03:56:48;30.55;;;15.70;;
21418;SDS011;10870;51.384;10.316;2022-12-18T03:58:52;32.42;;;17.35;;
21418;SDS011;10870;51.384;10.316;2022-12-18T04:00:55;35.10;;;16.33;;
21418;SDS011;10870;51.384;10.316;2022-12-18T04:02:59;28.70;;;16.20;;
21418;SDS011;10870;51.384;10.316;2022-12-18T04:05:05;31.17;;;15.70;;
21418;SDS011;10870;51.384;10.316;2022-12-18T04:07:08;32.00;;;14.82;;
21418;SDS011;10870;51.384;10.316;2022-12-18T04:09:13;30.48;;;15.88;;
21418;SDS011;10870;51.384;10.316;2022-12-18T04:11:17;35.33;;;14.73;;
21418;SDS011;10870;51.384;10.316;2022-12-18T04:13:24;32.25;;;16.48;;
21418;SDS011;10870;51.384;10.316;2022-12-18T04:15:28;31.90;;;16.10;;
21418;SDS011;10870;51.384;10.316;2022-12-18T04:17:29;30.52;;;16.25;;
21418;SDS011;10870;51.384;10.316;2022-12-18T04:19:31;29.20;;;15.88;;
21418;SDS011;10870;51.384;10.316;2022-12-18T04:21:32;31.95;;;17.25;;
21418;SDS011;10870;51.384;10.316;2022-12-18T04:23:36;29.02;;;16.42;;
21418;SDS011;10870;51.384;10.316;2022-12-18T04:25:37;26.25;;;15.60;;
21418;SDS011;10870;51.384;10.316;2022-12-18T04:27:38;29.40;;;16.42;;
21418;SDS011;10870;51.384;10.316;2022-12-18T04:29:40;30.70;;;16.10;;
21418;SDS011;10870;51.384;10.316;2022-12-18T04:31:44;33.22;;;17.65;;
21418;SDS011;10870;51.384;10.316;2022-12-18T04:33:45;28.55;;;15.55;;
21418;SDS011;10870;51.384;10.316;2022-12-18T04:35:46;27.83;;;14.82;;
21418;SDS011;10870;51.384;10.316;2022-12-18T04:37:50;24.38;;;15.10;;
21418;SDS011;10870;51.384;10.316;2022-12-18T04:39:51;27.83;;;14.82;;
21418;SDS011;10870;51.384;10.316;2022-12-18T04:41:52;26.23;;;15.48;;
21418;SDS011;10870;51.384;10.316;2022-12-18T04:43:55;32.92;;;16.13;;
21418;SDS011;10870;51.384;10.316;2022-12-18T04:46:05;31.10;;;15.50;;
21418;SDS011;10870;51.384;10.316;2022-12-18T04:48:10;29.15;;;15.88;;
21418;SDS011;10870;51.384;10.316;2022-12-18T04:50:13;30.85;;;16.17;;
21418;SDS011;10870;51.384;10.316;2022-12-18T04:52:14;34.20;;;17.27;;
21418;SDS011;10870;51.384;10.316;2022-12-18T04:54:15;32.10;;;17.08;;
21418;SDS011;10870;51.384;10.316;2022-12-18T04:56:24;30.10;;;16.88;;
21418;SDS011;10870;51.384;10.316;2022-12-18T04:58:30;32.60;;;17.95;;
21418;SDS011;10870;51.384;10.316;2022-12-18T05:00:33;35.60;;;18.27;;
21418;SDS011;10870;51.384;10.316;2022-12-18T05:02:37;29.90;;;16.58;;
21418;SDS011;10870;51.384;10.316;2022-12-18T05:04:41;28.55;;;16.40;;
21418;SDS011;10870;51.384;10.316;2022-12-18T05:06:42;36.80;;;18.38;;
21418;SDS011;10870;51.384;10.316;2022-12-18T05:08:45;33.67;;;17.90;;
21418;SDS011;10870;51.384;10.316;2022-12-18T05:10:46;32.95;;;16.83;;
21418;SDS011;10870;51.384;10.316;2022-12-18T05:12:50;30.20;;;17.52;;
21418;SDS011;10870;51.384;10.316;2022-12-18T05:15:01;30.17;;;15.57;;
21418;SDS011;10870;51.384;10.316;2022-12-18T05:17:07;28.97;;;16.30;;
21418;SDS011;10870;51.384;10.316;2022-12-18T05:19:09;25.73;;;15.45;;
21418;SDS011;10870;51.384;10.316;2022-12-18T05:21:10;29.50;;;15.80;;
21418;SDS011;10870;51.384;10.316;2022-12-18T05:23:15;33.90;;;16.05;;
21418;SDS011;10870;51.384;10.316;2022-12-18T05:25:20;29.30;;;16.58;;
21418;SDS011;10870;51.384;10.316;2022-12-18T05:27:26;29.35;;;16.63;;
21418;SDS011;10870;51.384;10.316;2022-12-18T05:29:27;30.65;;;16.92;;
21418;SDS011;10870;51.384;10.316;2022-12-18T05:31:30;30.45;;;16.70;;
21418;SDS011;10870;51.384;10.316;2022-12-18T05:33:34;35.67;;;18.00;;
21418;SDS011;10870;51.384;10.316;2022-12-18T05:35:35;28.88;;;16.52;;
21418;SDS011;10870;51.384;10.316;2022-12-18T05:37:39;29.40;;;15.68;;
21418;SDS011;10870;51.384;10.316;2022-12-18T05:39:43;31.92;;;16.45;;
21418;SDS011;10870;51.384;10.316;2022-12-18T05:41:44;27.00;;;14.48;;
21418;SDS011;10870;51.384;10.316;2022-12-18T05:43:45;27.60;;;14.95;;
21418;SDS011;10870;51.384;10.316;2022-12-18T05:45:49;34.05;;;16.02;;
21418;SDS011;10870;51.384;10.316;2022-12-18T05:47:53;27.25;;;15.52;;
21418;SDS011;10870;51.384;10.316;2022-12-18T05:49:57;29.27;;;15.75;;
21418;SDS011;10870;51.384;10.316;2022-12-18T05:52:03;29.08;;;15.05;;
21418;SDS011;10870;51.384;10.316;2022-12-18T05:54:04;32.42;;;17.45;;
21418;SDS011;10870;51.384;10.316;2022-12-18T05:56:08;30.70;;;16.02;;
21418;SDS011;10870;51.384;10.316;2022-12-18T05:58:12;33.00;;;16.52;;
21418;SDS011;10870;51.384;10.316;2022-12-18T06:00:15;29.80;;;15.85;;
21418;SDS011;10870;51.384;10.316;2022-12-18T06:02:17;29.58;;;16.42;;
21418;SDS011;10870;51.384;10.316;2022-12-18T06:04:18;30.38;;;15.15;;
21418;SDS011;10870;51.384;10.316;2022-12-18T06:06:21;31.90;;;15.45;;
21418;SDS011;10870;51.384;10.316;2022-12-18T06:08:31;26.50;;;15.93;;
21418;SDS011;10870;51.384;10.316;2022-12-18T06:10:32;26.92;;;15.00;;
21418;SDS011;10870;51.384;10.316;2022-12-18T06:12:33;25.40;;;15.07;;
21418;SDS011;10870;51.384;10.316;2022-12-18T06:14:34;26.63;;;14.77;;
21418;SDS011;10870;51.384;10.316;2022-12-18T06:16:35;26.83;;;14.95;;
21418;SDS011;10870;51.384;10.316;2022-12-18T06:18:37;28.92;;;15.55;;
21418;SDS011;10870;51.384;10.316;2022-12-18T06:20:38;32.95;;;17.17;;
21418;SDS011;10870;51.384;10.316;2022-12-18T06:22:42;33.22;;;17.40;;
21418;SDS011;10870;51.384;10.316;2022-12-18T06:24:45;34.25;;;18.45;;
21418;SDS011;10870;51.384;10.316;2022-12-18T06:26:46;30.92;;;17.55;;
21418;SDS011;10870;51.384;10.316;2022-12-18T06:28:47;29.05;;;16.73;;
21418;SDS011;10870;51.384;10.316;2022-12-18T06:30:51;34.58;;;17.00;;
21418;SDS011;10870;51.384;10.316;2022-12-18T06:32:55;33.55;;;18.02;;
21418;SDS011;10870;51.384;10.316;2022-12-18T06:34:57;28.50;;;17.05;;
21418;SDS011;10870;51.384;10.316;2022-12-18T06:36:58;30.50;;;17.42;;
21418;SDS011;10870;51.384;10.316;2022-12-18T06:38:59;36.35;;;19.70;;
21418;SDS011;10870;51.384;10.316;2022-12-18T06:41:07;37.35;;;20.20;;
21418;SDS011;10870;51.384;10.316;2022-12-18T06:43:15;33.40;;;19.42;;
21418;SDS011;10870;51.384;10.316;2022-12-18T06:45:15;31.00;;;17.13;;
21418;SDS011;10870;51.384;10.316;2022-12-18T06:47:16;30.15;;;16.25;;
21418;SDS011;10870;51.384;10.316;2022-12-18T06:49:22;25.15;;;15.38;;
21418;SDS011;10870;51.384;10.316;2022-12-18T06:51:23;36.05;;;16.90;;
21418;SDS011;10870;51.384;10.316;2022-12-18T06:53:27;29.08;;;16.58;;
21418;SDS011;10870;51.384;10.316;2022-12-18T06:55:33;28.42;;;16.42;;
21418;SDS011;10870;51.384;10.316;2022-12-18T06:57:37;28.23;;;15.35;;
21418;SDS011;10870;51.384;10.316;2022-12-18T06:59:40;28.80;;;16.40;;
21418;SDS011;10870;51.384;10.316;2022-12-18T07:01:44;25.67;;;16.08;;
21418;SDS011;10870;51.384;10.316;2022-12-18T07:03:53;31.38;;;16.73;;
21418;SDS011;10870;51.384;10.316;2022-12-18T07:06:01;29.10;;;17.08;;
21418;SDS011;10870;51.384;10.316;2022-12-18T07:08:04;30.73;;;16.23;;
21418;SDS011;10870;51.384;10.316;2022-12-18T07:10:06;30.00;;;15.52;;
21418;SDS011;10870;51.384;10.316;2022-12-18T07:12:10;35.88;;;17.60;;
21418;SDS011;10870;51.384;10.316;2022-12-18T07:14:11;32.03;;;17.48;;
21418;SDS011;10870;51.384;10.316;2022-12-18T07:16:15;31.98;;;18.63;;
21418;SDS011;10870;51.384;10.316;2022-12-18T07:18:18;34.35;;;18.38;;
21418;SDS011;10870;51.384;10.316;2022-12-18T07:20:18;28.90;;;18.50;;
21418;SDS011;10870;51.384;10.316;2022-12-18T07:22:22;33.13;;;18.17;;
21418;SDS011;10870;51.384;10.316;2022-12-18T07:24:25;34.60;;;18.13;;
21418;SDS011;10870;51.384;10.316;2022-12-18T07:26:26;33.70;;;18.03;;
21418;SDS011;10870;51.384;10.316;2022-12-18T07:28:27;32.03;;;16.77;;
21418;SDS011;10870;51.384;10.316;2022-12-18T07:30:33;36.63;;;18.70;;
21418;SDS011;10870;51.384;10.316;2022-12-18T07:32:40;36.10;;;19.30;;
21418;SDS011;10870;51.384;10.316;2022-12-18T07:34:41;37.23;;;20.10;;
21418;SDS011;10870;51.384;10.316;2022-12-18T07:36:44;33.38;;;18.05;;
21418;SDS011;10870;51.384;10.316;2022-12-18T07:38:48;43.47;;;19.50;;
21418;SDS011;10870;51.384;10.316;2022-12-18T07:40:49;40.85;;;23.85;;
21418;SDS011;10870;51.384;10.316;2022-12-18T07:42:50;44.42;;;23.25;;
21418;SDS011;10870;51.384;10.316;2022-12-18T07:44:54;46.30;;;26.60;;
21418;SDS011;10870;51.384;10.316;2022-12-18T07:46:55;43.80;;;26.13;;
21418;SDS011;10870;51.384;10.316;2022-12-18T07:48:56;49.40;;;26.45;;
21418;SDS011;10870;51.384;10.316;2022-12-18T07:51:03;38.78;;;24.98;;
21418;SDS011;10870;51.384;10.316;2022-12-18T07:53:06;38.85;;;20.88;;
21418;SDS011;10870;51.384;10.316;2022-12-18T07:55:07;38.60;;;20.13;;
21418;SDS011;10870;51.384;10.316;2022-12-18T07:57:08;36.97;;;17.87;;
21418;SDS011;10870;51.384;10.316;2022-12-18T07:59:12;33.60;;;17.60;;
21418;SDS011;10870;51.384;10.316;2022-12-18T08:01:13;34.08;;;18.98;;
21418;SDS011;10870;51.384;10.316;2022-12-18T08:03:14;36.33;;;19.27;;
21418;SDS011;10870;51.384;10.316;2022-12-18T08:05:18;38.00;;;19.05;;
21418;SDS011;10870;51.384;10.316;2022-12-18T08:07:23;34.73;;;19.23;;
21418;SDS011;10870;51.384;10.316;2022-12-18T08:09:32;38.22;;;20.60;;
21418;SDS011;10870;51.384;10.316;2022-12-18T08:11:33;45.75;;;22.02;;
21418;SDS011;10870;51.384;10.316;2022-12-18T08:13:45;39.58;;;19.67;;
21418;SDS011;10870;51.384;10.316;2022-12-18T08:15:46;41.47;;;21.30;;
21418;SDS011;10870;51.384;10.316;2022-12-18T08:18:20;38.35;;;20.45;;
21418;SDS011;10870;51.384;10.316;2022-12-18T08:20:23;41.03;;;21.67;;
21418;SDS011;10870;51.384;10.316;2022-12-18T08:22:24;43.47;;;21.42;;
21418;SDS011;10870;51.384;10.316;2022-12-18T08:24:30;41.40;;;22.60;;
21418;SDS011;10870;51.384;10.316;2022-12-18T08:26:31;42.75;;;21.85;;
21418;SDS011;10870;51.384;10.316;2022-12-18T08:28:40;35.97;;;20.48;;
21418;SDS011;10870;51.384;10.316;2022-12-18T08:30:54;34.45;;;19.40;;
21418;SDS011;10870;51.384;10.316;2022-12-18T08:32:55;37.60;;;20.02;;
21418;SDS011;10870;51.384;10.316;2022-12-18T08:34:56;41.17;;;21.55;;
21418;SDS011;10870;51.384;10.316;2022-12-18T08:37:01;41.07;;;20.63;;
21418;SDS011;10870;51.384;10.316;2022-12-18T08:39:03;38.67;;;20.40;;
21418;SDS011;10870;51.384;10.316;2022-12-18T08:41:08;39.45;;;20.20;;
21418;SDS011;10870;51.384;10.316;2022-12-18T08:43:13;43.38;;;20.73;;
21418;SDS011;10870;51.384;10.316;2022-12-18T08:45:33;41.85;;;20.67;;
21418;SDS011;10870;51.384;10.316;2022-12-18T08:47:34;44.13;;;21.63;;
21418;SDS011;10870;51.384;10.316;2022-12-18T08:49:35;41.95;;;24.75;;
21418;SDS011;10870;51.384;10.316;2022-12-18T08:51:44;41.42;;;21.92;;
21418;SDS011;10870;51.384;10.316;2022-12-18T08:54:07;52.70;;;26.23;;
21418;SDS011;10870;51.384;10.316;2022-12-18T08:56:40;45.05;;;23.95;;
21418;SDS011;10870;51.384;10.316;2022-12-18T08:58:44;47.53;;;22.48;;
21418;SDS011;10870;51.384;10.316;2022-12-18T09:00:45;41.75;;;21.48;;
21418;SDS011;10870;51.384;10.316;2022-12-18T09:02:46;42.15;;;21.60;;
21418;SDS011;10870;51.384;10.316;2022-12-18T09:04:47;40.30;;;21.05;;
21418;SDS011;10870;51.384;10.316;2022-12-18T09:06:51;44.05;;;22.65;;
21418;SDS011;10870;51.384;10.316;2022-12-18T09:08:55;40.75;;;19.58;;
21418;SDS011;10870;51.384;10.316;2022-12-18T09:11:00;38.22;;;19.50;;
21418;SDS011;10870;51.384;10.316;2022-12-18T09:13:00;36.28;;;18.52;;
21418;SDS011;10870;51.384;10.316;2022-12-18T09:15:02;37.08;;;19.33;;
21418;SDS011;10870;51.384;10.316;2022-12-18T09:17:03;34.10;;;16.50;;
21418;SDS011;10870;51.384;10.316;2022-12-18T09:19:06;34.03;;;17.88;;
21418;SDS011;10870;51.384;10.316;2022-12-18T09:21:12;39.63;;;19.25;;
21418;SDS011;10870;51.384;10.316;2022-12-18T09:23:23;35.63;;;19.13;;
21418;SDS011;10870;51.384;10.316;2022-12-18T09:25:28;37.00;;;20.15;;
21418;SDS011;10870;51.384;10.316;2022-12-18T09:27:33;37.00;;;19.15;;
21418;SDS011;10870;51.384;10.316;2022-12-18T09:29:39;35.40;;;17.67;;
21418;SDS011;10870;51.384;10.316;2022-12-18T09:31:42;35.05;;;19.80;;
21418;SDS011;10870;51.384;10.316;2022-12-18T09:33:44;40.53;;;20.63;;
21418;SDS011;10870;51.384;10.316;2022-12-18T09:35:45;41.33;;;20.35;;
21418;SDS011;10870;51.384;10.316;2022-12-18T09:37:49;39.78;;;19.45;;
21418;SDS011;10870;51.384;10.316;2022-12-18T09:39:53;39.97;;;19.58;;
21418;SDS011;10870;51.384;10.316;2022-12-18T09:41:57;35.25;;;19.13;;
21418;SDS011;10870;51.384;10.316;2022-12-18T09:46:16;40.88;;;19.60;;
21418;SDS011;10870;51.384;10.316;2022-12-18T09:48:27;35.92;;;19.42;;
21418;SDS011;10870;51.384;10.316;2022-12-18T09:50:38;35.10;;;19.55;;
21418;SDS011;10870;51.384;10.316;2022-12-18T09:52:41;32.58;;;17.73;;
21418;SDS011;10870;51.384;10.316;2022-12-18T09:55:02;36.28;;;19.90;;
21418;SDS011;10870;51.384;10.316;2022-12-18T09:57:13;34.78;;;19.67;;
21418;SDS011;10870;51.384;10.316;2022-12-18T09:59:22;37.85;;;19.65;;
21418;SDS011;10870;51.384;10.316;2022-12-18T10:01:29;34.75;;;18.10;;
21418;SDS011;10870;51.384;10.316;2022-12-18T10:03:31;36.50;;;18.75;;
21418;SDS011;10870;51.384;10.316;2022-12-18T10:10:05;37.20;;;17.88;;
21418;SDS011;10870;51.384;10.316;2022-12-18T10:12:34;31.90;;;16.50;;
21418;SDS011;10870;51.384;10.316;2022-12-18T10:15:27;30.48;;;16.48;;
21418;SDS011;10870;51.384;10.316;2022-12-18T10:19:41;29.35;;;16.77;;
21418;SDS011;10870;51.384;10.316;2022-12-18T10:26:34;35.45;;;18.52;;
21418;SDS011;10870;51.384;10.316;2022-12-18T10:28:36;32.50;;;17.65;;
21418;SDS011;10870;51.384;10.316;2022-12-18T10:30:48;35.88;;;18.65;;
21418;SDS011;10870;51.384;10.316;2022-12-18T10:32:53;33.30;;;19.65;;
21418;SDS011;10870;51.384;10.316;2022-12-18T10:34:55;36.88;;;18.85;;
21418;SDS011;10870;51.384;10.316;2022-12-18T10:36:57;33.72;;;18.02;;
21418;SDS011;10870;51.384;10.316;2022-12-18T10:39:23;40.80;;;22.67;;
21418;SDS011;10870;51.384;10.316;2022-12-18T10:41:27;35.38;;;19.85;;
21418;SDS011;10870;51.384;10.316;2022-12-18T10:43:35;37.58;;;19.77;;
21418;SDS011;10870;51.384;10.316;2022-12-18T10:45:56;42.03;;;24.20;;
21418;SDS011;10870;51.384;10.316;2022-12-18T10:48:19;45.92;;;23.58;;
21418;SDS011;10870;51.384;10.316;2022-12-18T10:50:34;42.92;;;23.38;;
21418;SDS011;10870;51.384;10.316;2022-12-18T10:52:40;42.45;;;21.63;;
21418;SDS011;10870;51.384;10.316;2022-12-18T10:57:13;33.05;;;18.58;;
21418;SDS011;10870;51.384;10.316;2022-12-18T10:59:20;31.95;;;18.13;;
21418;SDS011;10870;51.384;10.316;2022-12-18T11:01:22;34.60;;;17.48;;
21418;SDS011;10870;51.384;10.316;2022-12-18T11:03:30;35.08;;;17.85;;
21418;SDS011;10870;51.384;10.316;2022-12-18T11:05:41;32.53;;;17.92;;
21418;SDS011;10870;51.384;10.316;2022-12-18T11:07:49;33.50;;;17.98;;
21418;SDS011;10870;51.384;10.316;2022-12-18T11:10:00;37.65;;;18.45;;
21418;SDS011;10870;51.384;10.316;2022-12-18T11:12:08;28.60;;;15.20;;
21418;SDS011;10870;51.384;10.316;2022-12-18T11:14:24;39.92;;;20.40;;
21418;SDS011;10870;51.384;10.316;2022-12-18T11:16:32;37.10;;;19.88;;
21418;SDS011;10870;51.384;10.316;2022-12-18T11:18:43;40.90;;;23.98;;
21418;SDS011;10870;51.384;10.316;2022-12-18T11:20:48;44.50;;;24.15;;
21418;SDS011;10870;51.384;10.316;2022-12-18T11:23:01;76.47;;;35.25;;
21418;SDS011;10870;51.384;10.316;2022-12-18T11:25:06;58.90;;;29.80;;
21418;SDS011;10870;51.384;10.316;2022-12-18T11:27:20;43.42;;;23.98;;
21418;SDS011;10870;51.384;10.316;2022-12-18T11:29:26;40.55;;;22.25;;
21418;SDS011;10870;51.384;10.316;2022-12-18T11:31:35;34.50;;;20.52;;
21418;SDS011;10870;51.384;10.316;2022-12-18T11:33:37;36.22;;;20.08;;
21418;SDS011;10870;51.384;10.316;2022-12-18T11:35:53;41.97;;;20.50;;
21418;SDS011;10870;51.384;10.316;2022-12-18T11:38:03;37.92;;;19.58;;
21418;SDS011;10870;51.384;10.316;2022-12-18T11:40:14;41.42;;;24.08;;
21418;SDS011;10870;51.384;10.316;2022-12-18T11:42:20;45.72;;;22.73;;
21418;SDS011;10870;51.384;10.316;2022-12-18T11:44:29;39.10;;;20.73;;
21418;SDS011;10870;51.384;10.316;2022-12-18T11:46:51;38.03;;;21.33;;
21418;SDS011;10870;51.384;10.316;2022-12-18T11:49:07;38.38;;;21.02;;
21418;SDS011;10870;51.384;10.316;2022-12-18T11:51:16;41.63;;;23.73;;
21418;SDS011;10870;51.384;10.316;2022-12-18T11:53:24;42.83;;;22.55;;
21418;SDS011;10870;51.384;10.316;2022-12-18T11:57:51;39.45;;;21.75;;
21418;SDS011;10870;51.384;10.316;2022-12-18T12:00:11;37.78;;;22.17;;
21418;SDS011;10870;51.384;10.316;2022-12-18T12:14:23;41.83;;;22.70;;
21418;SDS011;10870;51.384;10.316;2022-12-18T12:16:43;35.28;;;18.23;;
21418;SDS011;10870;51.384;10.316;2022-12-18T12:29:55;41.88;;;21.52;;
21418;SDS011;10870;51.384;10.316;2022-12-18T12:34:47;33.92;;;18.52;;
21418;SDS011;10870;51.384;10.316;2022-12-18T12:39:27;33.42;;;18.05;;
21418;SDS011;10870;51.384;10.316;2022-12-18T12:41:35;31.17;;;16.20;;
21418;SDS011;10870;51.384;10.316;2022-12-18T12:43:57;28.58;;;15.93;;
21418;SDS011;10870;51.384;10.316;2022-12-18T12:46:05;28.25;;;16.92;;
21418;SDS011;10870;51.384;10.316;2022-12-18T12:50:49;34.20;;;17.17;;
21418;SDS011;10870;51.384;10.316;2022-12-18T12:52:54;30.33;;;17.17;;
21418;SDS011;10870;51.384;10.316;2022-12-18T12:54:57;35.10;;;19.05;;
21418;SDS011;10870;51.384;10.316;2022-12-18T12:57:08;27.70;;;16.20;;
21418;SDS011;10870;51.384;10.316;2022-12-18T13:06:44;32.10;;;17.23;;
21418;SDS011;10870;51.384;10.316;2022-12-18T13:09:00;35.65;;;19.73;;
21418;SDS011;10870;51.384;10.316;2022-12-18T13:11:12;35.10;;;18.58;;
21418;SDS011;10870;51.384;10.316;2022-12-18T13:14:03;34.05;;;18.77;;
21418;SDS011;10870;51.384;10.316;2022-12-18T13:16:05;31.25;;;18.80;;
21418;SDS011;10870;51.384;10.316;2022-12-18T13:20:30;37.00;;;19.52;;
21418;SDS011;10870;51.384;10.316;2022-12-18T13:24:42;36.63;;;20.42;;
21418;SDS011;10870;51.384;10.316;2022-12-18T13:26:43;37.03;;;21.02;;
21418;SDS011;10870;51.384;10.316;2022-12-18T13:30:51;38.53;;;21.05;;
21418;SDS011;10870;51.384;10.316;2022-12-18T13:37:51;33.95;;;18.73;;
21418;SDS011;10870;51.384;10.316;2022-12-18T13:39:55;43.58;;;21.33;;
21418;SDS011;10870;51.384;10.316;2022-12-18T13:46:29;35.67;;;19.60;;
21418;SDS011;10870;51.384;10.316;2022-12-18T13:48:49;41.60;;;22.48;;